sensor_id;sensor_type;location;lat;lon;timestamp;temperature;humidity
13245;DHT22;6689;53.400;12.486;2022-10-16T00:01:31;15.40;99.90
13245;DHT22;6689;53.400;12.486;2022-10-16T00:04:01;15.50;89.60
13245;DHT22;6689;53.400;12.486;2022-10-16T00:06:35;15.40;60.30
13245;DHT22;6689;53.400;12.486;2022-10-16T00:12:03;15.50;29.90
13245;DHT22;6689;53.400;12.486;2022-10-16T00:14:32;15.50;19.40
13245;DHT22;6689;53.400;12.486;2022-10-16T00:17:12;15.50;26.60
13245;DHT22;6689;53.400;12.486;2022-10-16T00:19:40;15.50;11.60
13245;DHT22;6689;53.400;12.486;2022-10-16T00:22:15;15.50;13.20
13245;DHT22;6689;53.400;12.486;2022-10-16T00:24:52;15.50;13.00
13245;DHT22;6689;53.400;12.486;2022-10-16T00:27:36;15.40;30.60
13245;DHT22;6689;53.400;12.486;2022-10-16T00:30:06;15.40;31.40
13245;DHT22;6689;53.400;12.486;2022-10-16T00:32:42;15.50;19.90
13245;DHT22;6689;53.400;12.486;2022-10-16T00:35:18;15.50;28.80
13245;DHT22;6689;53.400;12.486;2022-10-16T00:37:46;15.40;80.90
13245;DHT22;6689;53.400;12.486;2022-10-16T00:40:16;15.40;99.90
13245;DHT22;6689;53.400;12.486;2022-10-16T00:43:02;15.50;99.90
13245;DHT22;6689;53.400;12.486;2022-10-16T00:45:32;15.50;99.90
13245;DHT22;6689;53.400;12.486;2022-10-16T00:48:02;15.50;99.90
13245;DHT22;6689;53.400;12.486;2022-10-16T00:50:41;15.50;99.90
13245;DHT22;6689;53.400;12.486;2022-10-16T00:53:15;15.60;99.90
13245;DHT22;6689;53.400;12.486;2022-10-16T00:55:46;15.70;99.90
13245;DHT22;6689;53.400;12.486;2022-10-16T00:58:28;15.60;99.90
13245;DHT22;6689;53.400;12.486;2022-10-16T01:00:56;15.60;99.90
13245;DHT22;6689;53.400;12.486;2022-10-16T01:03:28;15.60;99.90
13245;DHT22;6689;53.400;12.486;2022-10-16T01:06:21;15.70;99.90
13245;DHT22;6689;53.400;12.486;2022-10-16T01:11:49;15.70;99.90
13245;DHT22;6689;53.400;12.486;2022-10-16T01:14:37;15.70;99.90
13245;DHT22;6689;53.400;12.486;2022-10-16T01:17:10;15.70;99.90
13245;DHT22;6689;53.400;12.486;2022-10-16T01:20:08;15.60;99.90
13245;DHT22;6689;53.400;12.486;2022-10-16T01:23:02;15.60;99.90
13245;DHT22;6689;53.400;12.486;2022-10-16T01:25:39;15.60;99.90
13245;DHT22;6689;53.400;12.486;2022-10-16T01:28:32;15.60;99.90
13245;DHT22;6689;53.400;12.486;2022-10-16T01:31:01;15.50;99.90
13245;DHT22;6689;53.400;12.486;2022-10-16T01:33:34;15.50;99.90
13245;DHT22;6689;53.400;12.486;2022-10-16T01:36:05;15.50;99.90
13245;DHT22;6689;53.400;12.486;2022-10-16T01:38:47;15.40;99.90
13245;DHT22;6689;53.400;12.486;2022-10-16T01:41:30;15.40;99.90
13245;DHT22;6689;53.400;12.486;2022-10-16T01:44:08;15.40;99.90
13245;DHT22;6689;53.400;12.486;2022-10-16T01:46:50;15.40;99.90
13245;DHT22;6689;53.400;12.486;2022-10-16T01:49:18;15.40;99.90
13245;DHT22;6689;53.400;12.486;2022-10-16T01:51:48;15.30;99.90
13245;DHT22;6689;53.400;12.486;2022-10-16T01:54:17;15.30;99.90
13245;DHT22;6689;53.400;12.486;2022-10-16T01:56:47;15.30;99.90
13245;DHT22;6689;53.400;12.486;2022-10-16T01:59:40;15.30;99.90
13245;DHT22;6689;53.400;12.486;2022-10-16T02:02:09;15.20;99.90
13245;DHT22;6689;53.400;12.486;2022-10-16T02:04:42;15.20;99.90
13245;DHT22;6689;53.400;12.486;2022-10-16T02:07:23;15.20;99.90
13245;DHT22;6689;53.400;12.486;2022-10-16T02:09:57;15.20;99.90
13245;DHT22;6689;53.400;12.486;2022-10-16T02:12:29;15.20;99.90
13245;DHT22;6689;53.400;12.486;2022-10-16T02:15:08;15.30;99.90
13245;DHT22;6689;53.400;12.486;2022-10-16T02:17:37;15.20;99.90
13245;DHT22;6689;53.400;12.486;2022-10-16T02:20:08;15.20;99.90
13245;DHT22;6689;53.400;12.486;2022-10-16T02:22:39;15.10;99.90
13245;DHT22;6689;53.400;12.486;2022-10-16T02:25:11;15.10;99.90
13245;DHT22;6689;53.400;12.486;2022-10-16T02:27:57;15.10;99.90
13245;DHT22;6689;53.400;12.486;2022-10-16T02:33:18;15.00;99.90
13245;DHT22;6689;53.400;12.486;2022-10-16T02:35:59;15.00;99.90
13245;DHT22;6689;53.400;12.486;2022-10-16T02:38:29;15.00;99.90
13245;DHT22;6689;53.400;12.486;2022-10-16T02:40:57;15.00;99.90
13245;DHT22;6689;53.400;12.486;2022-10-16T02:43:28;15.00;99.90
13245;DHT22;6689;53.400;12.486;2022-10-16T02:46:00;15.00;99.90
13245;DHT22;6689;53.400;12.486;2022-10-16T02:48:44;14.90;99.90
13245;DHT22;6689;53.400;12.486;2022-10-16T02:51:14;14.90;99.90
13245;DHT22;6689;53.400;12.486;2022-10-16T02:53:43;14.90;99.90
13245;DHT22;6689;53.400;12.486;2022-10-16T02:56:12;14.90;99.90
13245;DHT22;6689;53.400;12.486;2022-10-16T02:58:43;14.90;99.90
13245;DHT22;6689;53.400;12.486;2022-10-16T03:01:13;14.80;99.90
13245;DHT22;6689;53.400;12.486;2022-10-16T03:06:43;14.70;99.90
13245;DHT22;6689;53.400;12.486;2022-10-16T03:09:24;14.70;99.90
13245;DHT22;6689;53.400;12.486;2022-10-16T03:11:52;14.70;99.90
13245;DHT22;6689;53.400;12.486;2022-10-16T03:14:28;14.70;99.90
13245;DHT22;6689;53.400;12.486;2022-10-16T03:17:09;14.70;99.90
13245;DHT22;6689;53.400;12.486;2022-10-16T03:19:38;14.70;99.90
13245;DHT22;6689;53.400;12.486;2022-10-16T03:30:49;14.60;93.60
13245;DHT22;6689;53.400;12.486;2022-10-16T03:33:31;14.60;78.70
13245;DHT22;6689;53.400;12.486;2022-10-16T03:35:59;14.60;74.00
13245;DHT22;6689;53.400;12.486;2022-10-16T03:38:28;14.60;67.20
13245;DHT22;6689;53.400;12.486;2022-10-16T03:40:59;14.60;68.20
13245;DHT22;6689;53.400;12.486;2022-10-16T03:43:29;14.50;51.60
13245;DHT22;6689;53.400;12.486;2022-10-16T03:46:20;14.60;60.00
13245;DHT22;6689;53.400;12.486;2022-10-16T03:48:49;14.50;54.50
13245;DHT22;6689;53.400;12.486;2022-10-16T03:51:18;14.50;59.00
13245;DHT22;6689;53.400;12.486;2022-10-16T03:53:48;14.50;54.90
13245;DHT22;6689;53.400;12.486;2022-10-16T03:56:15;14.50;48.80
13245;DHT22;6689;53.400;12.486;2022-10-16T03:58:49;14.50;51.30
13245;DHT22;6689;53.400;12.486;2022-10-16T04:01:28;14.40;32.00
13245;DHT22;6689;53.400;12.486;2022-10-16T04:04:03;14.40;33.00
13245;DHT22;6689;53.400;12.486;2022-10-16T04:06:44;14.40;18.50
13245;DHT22;6689;53.400;12.486;2022-10-16T04:09:14;14.40;14.40
13245;DHT22;6689;53.400;12.486;2022-10-16T04:11:44;14.40;12.10
13245;DHT22;6689;53.400;12.486;2022-10-16T04:14:25;14.40;8.20
13245;DHT22;6689;53.400;12.486;2022-10-16T04:20:00;14.30;15.40
13245;DHT22;6689;53.400;12.486;2022-10-16T04:22:29;14.30;22.40
13245;DHT22;6689;53.400;12.486;2022-10-16T04:25:11;14.20;12.00
13245;DHT22;6689;53.400;12.486;2022-10-16T04:27:39;14.20;17.40
13245;DHT22;6689;53.400;12.486;2022-10-16T04:30:10;14.20;4.70
13245;DHT22;6689;53.400;12.486;2022-10-16T04:32:47;14.20;2.20
13245;DHT22;6689;53.400;12.486;2022-10-16T04:35:25;14.10;3.20
13245;DHT22;6689;53.400;12.486;2022-10-16T04:37:53;14.10;1.00
13245;DHT22;6689;53.400;12.486;2022-10-16T04:40:29;14.10;3.20
13245;DHT22;6689;53.400;12.486;2022-10-16T04:43:10;14.10;1.00
13245;DHT22;6689;53.400;12.486;2022-10-16T04:45:39;14.00;1.00
13245;DHT22;6689;53.400;12.486;2022-10-16T04:48:16;14.00;1.00
13245;DHT22;6689;53.400;12.486;2022-10-16T04:53:39;14.00;1.00
13245;DHT22;6689;53.400;12.486;2022-10-16T04:56:10;14.00;1.00
13245;DHT22;6689;53.400;12.486;2022-10-16T04:58:44;14.00;1.00
13245;DHT22;6689;53.400;12.486;2022-10-16T05:01:26;14.00;1.00
13245;DHT22;6689;53.400;12.486;2022-10-16T05:03:56;14.00;1.00
13245;DHT22;6689;53.400;12.486;2022-10-16T05:06:25;13.90;1.00
13245;DHT22;6689;53.400;12.486;2022-10-16T05:09:01;13.90;1.00
13245;DHT22;6689;53.400;12.486;2022-10-16T05:11:29;13.90;1.00
13245;DHT22;6689;53.400;12.486;2022-10-16T05:14:10;13.90;1.00
13245;DHT22;6689;53.400;12.486;2022-10-16T05:16:40;13.80;1.00
13245;DHT22;6689;53.400;12.486;2022-10-16T05:19:16;13.80;1.00
13245;DHT22;6689;53.400;12.486;2022-10-16T05:21:45;13.80;1.00
13245;DHT22;6689;53.400;12.486;2022-10-16T05:24:30;13.80;1.00
13245;DHT22;6689;53.400;12.486;2022-10-16T05:27:00;13.70;1.00
13245;DHT22;6689;53.400;12.486;2022-10-16T05:29:41;13.60;1.00
13245;DHT22;6689;53.400;12.486;2022-10-16T05:32:10;13.60;1.00
13245;DHT22;6689;53.400;12.486;2022-10-16T05:34:40;13.60;1.00
13245;DHT22;6689;53.400;12.486;2022-10-16T05:37:10;13.60;1.00
13245;DHT22;6689;53.400;12.486;2022-10-16T05:45:39;13.50;1.00
13245;DHT22;6689;53.400;12.486;2022-10-16T05:48:10;13.50;1.00
13245;DHT22;6689;53.400;12.486;2022-10-16T05:50:46;13.50;1.00
13245;DHT22;6689;53.400;12.486;2022-10-16T05:53:15;13.50;1.00
13245;DHT22;6689;53.400;12.486;2022-10-16T05:55:57;13.50;1.00
13245;DHT22;6689;53.400;12.486;2022-10-16T05:58:28;13.50;1.00
13245;DHT22;6689;53.400;12.486;2022-10-16T06:01:12;13.50;1.00
13245;DHT22;6689;53.400;12.486;2022-10-16T06:03:44;13.50;1.00
13245;DHT22;6689;53.400;12.486;2022-10-16T06:06:11;13.50;1.00
13245;DHT22;6689;53.400;12.486;2022-10-16T06:08:40;13.50;1.00
13245;DHT22;6689;53.400;12.486;2022-10-16T06:11:11;13.50;1.00
13245;DHT22;6689;53.400;12.486;2022-10-16T06:13:52;13.50;1.00
13245;DHT22;6689;53.400;12.486;2022-10-16T06:16:25;13.50;1.00
13245;DHT22;6689;53.400;12.486;2022-10-16T06:18:56;13.50;1.00
13245;DHT22;6689;53.400;12.486;2022-10-16T06:21:26;13.50;1.00
13245;DHT22;6689;53.400;12.486;2022-10-16T06:23:56;13.60;1.00
13245;DHT22;6689;53.400;12.486;2022-10-16T06:26:26;13.60;1.00
13245;DHT22;6689;53.400;12.486;2022-10-16T06:29:02;13.60;1.00
13245;DHT22;6689;53.400;12.486;2022-10-16T06:31:45;13.60;1.00
13245;DHT22;6689;53.400;12.486;2022-10-16T06:34:16;13.60;1.00
13245;DHT22;6689;53.400;12.486;2022-10-16T06:36:54;13.60;1.00
13245;DHT22;6689;53.400;12.486;2022-10-16T06:39:26;13.60;1.00
13245;DHT22;6689;53.400;12.486;2022-10-16T06:41:55;13.60;1.00
13245;DHT22;6689;53.400;12.486;2022-10-16T06:44:30;13.70;1.00
13245;DHT22;6689;53.400;12.486;2022-10-16T06:50:02;13.80;1.00
13245;DHT22;6689;53.400;12.486;2022-10-16T06:52:32;13.80;1.00
13245;DHT22;6689;53.400;12.486;2022-10-16T06:55:06;13.80;1.00
13245;DHT22;6689;53.400;12.486;2022-10-16T06:57:42;13.90;1.00
13245;DHT22;6689;53.400;12.486;2022-10-16T07:00:17;13.80;1.00
13245;DHT22;6689;53.400;12.486;2022-10-16T07:02:47;13.90;1.00
13245;DHT22;6689;53.400;12.486;2022-10-16T07:08:13;13.90;1.00
13245;DHT22;6689;53.400;12.486;2022-10-16T07:10:58;13.90;1.00
13245;DHT22;6689;53.400;12.486;2022-10-16T07:13:26;13.90;1.00
13245;DHT22;6689;53.400;12.486;2022-10-16T07:16:04;13.90;1.00
13245;DHT22;6689;53.400;12.486;2022-10-16T07:18:31;13.90;1.00
13245;DHT22;6689;53.400;12.486;2022-10-16T07:21:05;13.90;1.00
13245;DHT22;6689;53.400;12.486;2022-10-16T07:23:49;13.90;1.00
13245;DHT22;6689;53.400;12.486;2022-10-16T07:26:18;13.90;1.00
13245;DHT22;6689;53.400;12.486;2022-10-16T07:28:46;13.90;1.00
13245;DHT22;6689;53.400;12.486;2022-10-16T07:31:14;14.00;1.00
13245;DHT22;6689;53.400;12.486;2022-10-16T07:33:42;14.00;1.00
13245;DHT22;6689;53.400;12.486;2022-10-16T07:36:13;14.00;1.00
13245;DHT22;6689;53.400;12.486;2022-10-16T07:38:52;14.00;1.00
13245;DHT22;6689;53.400;12.486;2022-10-16T07:41:28;14.10;1.00
13245;DHT22;6689;53.400;12.486;2022-10-16T07:43:58;14.10;1.00
13245;DHT22;6689;53.400;12.486;2022-10-16T07:46:26;14.10;1.00
13245;DHT22;6689;53.400;12.486;2022-10-16T07:49:06;14.10;1.00
13245;DHT22;6689;53.400;12.486;2022-10-16T07:51:42;14.10;1.00
13245;DHT22;6689;53.400;12.486;2022-10-16T07:54:27;14.20;1.00
13245;DHT22;6689;53.400;12.486;2022-10-16T07:56:56;14.30;1.00
13245;DHT22;6689;53.400;12.486;2022-10-16T07:59:26;14.40;1.00
13245;DHT22;6689;53.400;12.486;2022-10-16T08:01:53;14.60;1.00
13245;DHT22;6689;53.400;12.486;2022-10-16T08:04:21;14.60;1.00
13245;DHT22;6689;53.400;12.486;2022-10-16T08:06:52;14.50;1.00
13245;DHT22;6689;53.400;12.486;2022-10-16T08:09:37;14.60;1.00
13245;DHT22;6689;53.400;12.486;2022-10-16T08:12:17;14.80;1.00
13245;DHT22;6689;53.400;12.486;2022-10-16T08:14:46;14.90;1.00
13245;DHT22;6689;53.400;12.486;2022-10-16T08:17:14;15.00;1.00
13245;DHT22;6689;53.400;12.486;2022-10-16T08:19:44;15.00;1.00
13245;DHT22;6689;53.400;12.486;2022-10-16T08:22:13;14.90;1.00
13245;DHT22;6689;53.400;12.486;2022-10-16T08:24:43;14.90;1.00
13245;DHT22;6689;53.400;12.486;2022-10-16T08:27:12;14.90;1.00
13245;DHT22;6689;53.400;12.486;2022-10-16T08:29:44;14.90;1.00
13245;DHT22;6689;53.400;12.486;2022-10-16T08:32:12;14.90;1.00
13245;DHT22;6689;53.400;12.486;2022-10-16T08:34:42;15.10;1.00
13245;DHT22;6689;53.400;12.486;2022-10-16T08:37:23;15.30;1.00
13245;DHT22;6689;53.400;12.486;2022-10-16T08:42:53;15.60;1.00
13245;DHT22;6689;53.400;12.486;2022-10-16T08:45:26;15.70;1.00
13245;DHT22;6689;53.400;12.486;2022-10-16T08:48:08;15.80;1.00
13245;DHT22;6689;53.400;12.486;2022-10-16T08:50:40;16.00;1.00
13245;DHT22;6689;53.400;12.486;2022-10-16T08:53:10;16.00;1.00
13245;DHT22;6689;53.400;12.486;2022-10-16T08:55:43;16.10;1.00
13245;DHT22;6689;53.400;12.486;2022-10-16T08:58:15;16.20;1.00
13245;DHT22;6689;53.400;12.486;2022-10-16T09:00:46;16.20;1.00
13245;DHT22;6689;53.400;12.486;2022-10-16T09:03:21;16.20;1.00
13245;DHT22;6689;53.400;12.486;2022-10-16T09:05:53;16.30;1.00
13245;DHT22;6689;53.400;12.486;2022-10-16T09:08:40;16.20;1.00
13245;DHT22;6689;53.400;12.486;2022-10-16T09:11:10;16.20;1.00
13245;DHT22;6689;53.400;12.486;2022-10-16T09:13:55;16.20;1.00
13245;DHT22;6689;53.400;12.486;2022-10-16T09:16:38;16.20;1.00
13245;DHT22;6689;53.400;12.486;2022-10-16T09:19:13;16.20;1.00
13245;DHT22;6689;53.400;12.486;2022-10-16T09:21:43;16.30;1.00
13245;DHT22;6689;53.400;12.486;2022-10-16T09:24:25;16.50;1.00
13245;DHT22;6689;53.400;12.486;2022-10-16T09:26:54;16.60;1.00
13245;DHT22;6689;53.400;12.486;2022-10-16T09:32:24;16.80;1.00
13245;DHT22;6689;53.400;12.486;2022-10-16T09:34:54;16.80;1.00
13245;DHT22;6689;53.400;12.486;2022-10-16T09:37:22;16.90;1.00
13245;DHT22;6689;53.400;12.486;2022-10-16T09:39:54;16.80;1.00
13245;DHT22;6689;53.400;12.486;2022-10-16T09:42:23;16.90;1.00
13245;DHT22;6689;53.400;12.486;2022-10-16T09:45:19;17.00;1.00
13245;DHT22;6689;53.400;12.486;2022-10-16T09:50:54;17.20;1.00
13245;DHT22;6689;53.400;12.486;2022-10-16T09:53:39;17.30;1.00
13245;DHT22;6689;53.400;12.486;2022-10-16T09:56:21;17.50;1.00
13245;DHT22;6689;53.400;12.486;2022-10-16T09:59:08;17.60;99.90
13245;DHT22;6689;53.400;12.486;2022-10-16T10:01:49;17.80;99.90
13245;DHT22;6689;53.400;12.486;2022-10-16T10:04:17;18.00;99.90
13245;DHT22;6689;53.400;12.486;2022-10-16T10:06:54;18.10;99.90
13245;DHT22;6689;53.400;12.486;2022-10-16T10:09:37;18.20;99.90
13245;DHT22;6689;53.400;12.486;2022-10-16T10:12:05;18.30;99.90
13245;DHT22;6689;53.400;12.486;2022-10-16T10:14:47;18.40;99.90
13245;DHT22;6689;53.400;12.486;2022-10-16T10:17:19;18.40;99.90
13245;DHT22;6689;53.400;12.486;2022-10-16T10:20:13;18.50;99.90
13245;DHT22;6689;53.400;12.486;2022-10-16T10:28:29;18.90;99.90
13245;DHT22;6689;53.400;12.486;2022-10-16T10:31:03;18.90;99.90
13245;DHT22;6689;53.400;12.486;2022-10-16T10:33:37;19.00;99.90
13245;DHT22;6689;53.400;12.486;2022-10-16T10:36:22;19.00;99.90
13245;DHT22;6689;53.400;12.486;2022-10-16T10:38:52;19.10;99.90
13245;DHT22;6689;53.400;12.486;2022-10-16T10:41:40;19.20;99.90
13245;DHT22;6689;53.400;12.486;2022-10-16T10:44:21;19.40;99.90
13245;DHT22;6689;53.400;12.486;2022-10-16T10:47:01;19.50;99.90
13245;DHT22;6689;53.400;12.486;2022-10-16T10:49:36;19.60;99.90
13245;DHT22;6689;53.400;12.486;2022-10-16T10:52:13;19.70;99.90
13245;DHT22;6689;53.400;12.486;2022-10-16T10:54:52;19.70;99.90
13245;DHT22;6689;53.400;12.486;2022-10-16T10:57:37;19.90;99.90
13245;DHT22;6689;53.400;12.486;2022-10-16T11:00:24;19.90;99.90
13245;DHT22;6689;53.400;12.486;2022-10-16T11:02:57;19.80;99.90
13245;DHT22;6689;53.400;12.486;2022-10-16T11:05:31;19.90;99.90
13245;DHT22;6689;53.400;12.486;2022-10-16T11:08:15;20.00;99.90
13245;DHT22;6689;53.400;12.486;2022-10-16T11:10:58;20.10;99.90
13245;DHT22;6689;53.400;12.486;2022-10-16T11:13:42;20.10;99.90
13245;DHT22;6689;53.400;12.486;2022-10-16T11:18:58;20.20;99.90
13245;DHT22;6689;53.400;12.486;2022-10-16T11:21:43;20.30;99.90
13245;DHT22;6689;53.400;12.486;2022-10-16T11:24:16;20.40;99.90
13245;DHT22;6689;53.400;12.486;2022-10-16T11:26:46;20.30;98.90
13245;DHT22;6689;53.400;12.486;2022-10-16T11:29:16;20.20;99.90
13245;DHT22;6689;53.400;12.486;2022-10-16T11:31:45;20.10;99.90
13245;DHT22;6689;53.400;12.486;2022-10-16T11:34:20;20.00;99.90
13245;DHT22;6689;53.400;12.486;2022-10-16T11:36:51;20.00;96.30
13245;DHT22;6689;53.400;12.486;2022-10-16T11:39:34;20.00;99.90
13245;DHT22;6689;53.400;12.486;2022-10-16T11:42:21;20.20;99.90
13245;DHT22;6689;53.400;12.486;2022-10-16T11:44:51;20.20;99.90
13245;DHT22;6689;53.400;12.486;2022-10-16T11:47:36;20.30;99.90
13245;DHT22;6689;53.400;12.486;2022-10-16T11:56:07;19.70;70.00
13245;DHT22;6689;53.400;12.486;2022-10-16T11:58:35;19.80;76.80
13245;DHT22;6689;53.400;12.486;2022-10-16T12:01:21;19.90;89.10
13245;DHT22;6689;53.400;12.486;2022-10-16T12:03:56;20.10;98.50
13245;DHT22;6689;53.400;12.486;2022-10-16T12:06:31;20.20;99.90
13245;DHT22;6689;53.400;12.486;2022-10-16T12:09:01;20.30;88.30
13245;DHT22;6689;53.400;12.486;2022-10-16T12:11:36;20.30;81.90
13245;DHT22;6689;53.400;12.486;2022-10-16T12:14:06;20.30;62.10
13245;DHT22;6689;53.400;12.486;2022-10-16T12:16:36;20.10;33.80
13245;DHT22;6689;53.400;12.486;2022-10-16T12:19:10;20.10;38.20
13245;DHT22;6689;53.400;12.486;2022-10-16T12:21:51;20.00;55.30
13245;DHT22;6689;53.400;12.486;2022-10-16T12:24:21;19.80;60.00
13245;DHT22;6689;53.400;12.486;2022-10-16T12:27:19;19.80;44.90
13245;DHT22;6689;53.400;12.486;2022-10-16T12:29:54;19.60;65.90
13245;DHT22;6689;53.400;12.486;2022-10-16T12:32:36;19.60;70.50
13245;DHT22;6689;53.400;12.486;2022-10-16T12:35:04;19.50;76.50
13245;DHT22;6689;53.400;12.486;2022-10-16T12:37:46;19.50;82.80
13245;DHT22;6689;53.400;12.486;2022-10-16T12:40:15;19.40;58.70
13245;DHT22;6689;53.400;12.486;2022-10-16T12:42:45;19.50;91.90
13245;DHT22;6689;53.400;12.486;2022-10-16T12:45:26;19.60;99.90
13245;DHT22;6689;53.400;12.486;2022-10-16T12:47:56;19.60;99.90
13245;DHT22;6689;53.400;12.486;2022-10-16T12:50:26;19.50;47.70
13245;DHT22;6689;53.400;12.486;2022-10-16T12:53:17;19.40;46.70
13245;DHT22;6689;53.400;12.486;2022-10-16T12:55:50;19.20;39.50
13245;DHT22;6689;53.400;12.486;2022-10-16T12:58:57;19.30;45.60
13245;DHT22;6689;53.400;12.486;2022-10-16T13:01:42;19.50;53.60
13245;DHT22;6689;53.400;12.486;2022-10-16T13:07:12;19.70;55.50
13245;DHT22;6689;53.400;12.486;2022-10-16T13:09:59;19.70;39.40
13245;DHT22;6689;53.400;12.486;2022-10-16T13:12:36;19.80;42.20
13245;DHT22;6689;53.400;12.486;2022-10-16T13:15:16;19.90;35.50
13245;DHT22;6689;53.400;12.486;2022-10-16T13:17:48;19.80;17.90
13245;DHT22;6689;53.400;12.486;2022-10-16T13:20:21;20.00;6.00
13245;DHT22;6689;53.400;12.486;2022-10-16T13:23:10;19.90;11.90
13245;DHT22;6689;53.400;12.486;2022-10-16T13:25:45;20.00;8.90
13245;DHT22;6689;53.400;12.486;2022-10-16T13:28:21;19.90;5.20
13245;DHT22;6689;53.400;12.486;2022-10-16T13:33:50;20.10;25.00
13245;DHT22;6689;53.400;12.486;2022-10-16T13:36:34;20.20;38.00
13245;DHT22;6689;53.400;12.486;2022-10-16T13:39:10;20.20;15.80
13245;DHT22;6689;53.400;12.486;2022-10-16T13:41:42;20.20;5.30
13245;DHT22;6689;53.400;12.486;2022-10-16T13:44:24;20.20;12.20
13245;DHT22;6689;53.400;12.486;2022-10-16T13:46:58;20.10;1.00
13245;DHT22;6689;53.400;12.486;2022-10-16T13:49:27;20.10;1.00
13245;DHT22;6689;53.400;12.486;2022-10-16T13:51:56;20.10;9.20
13245;DHT22;6689;53.400;12.486;2022-10-16T13:54:24;20.00;2.20
13245;DHT22;6689;53.400;12.486;2022-10-16T13:57:05;20.10;13.10
13245;DHT22;6689;53.400;12.486;2022-10-16T13:59:35;20.00;1.00
13245;DHT22;6689;53.400;12.486;2022-10-16T14:02:18;20.10;19.60
13245;DHT22;6689;53.400;12.486;2022-10-16T14:04:52;20.00;13.90
13245;DHT22;6689;53.400;12.486;2022-10-16T14:07:23;20.00;3.50
13245;DHT22;6689;53.400;12.486;2022-10-16T14:09:50;20.00;3.40
13245;DHT22;6689;53.400;12.486;2022-10-16T14:12:32;20.00;9.20
13245;DHT22;6689;53.400;12.486;2022-10-16T14:15:00;20.00;13.30
13245;DHT22;6689;53.400;12.486;2022-10-16T14:17:28;20.00;12.50
13245;DHT22;6689;53.400;12.486;2022-10-16T14:22:45;19.80;14.50
13245;DHT22;6689;53.400;12.486;2022-10-16T14:25:23;19.80;13.40
13245;DHT22;6689;53.400;12.486;2022-10-16T14:27:56;19.70;1.00
13245;DHT22;6689;53.400;12.486;2022-10-16T14:30:26;19.70;3.70
13245;DHT22;6689;53.400;12.486;2022-10-16T14:33:20;19.70;1.00
13245;DHT22;6689;53.400;12.486;2022-10-16T14:35:59;19.70;1.00
13245;DHT22;6689;53.400;12.486;2022-10-16T14:44:09;19.60;1.00
13245;DHT22;6689;53.400;12.486;2022-10-16T14:46:42;19.50;1.00
13245;DHT22;6689;53.400;12.486;2022-10-16T14:49:14;19.40;1.00
13245;DHT22;6689;53.400;12.486;2022-10-16T14:51:42;19.40;5.80
13245;DHT22;6689;53.400;12.486;2022-10-16T14:54:18;19.30;1.00
13245;DHT22;6689;53.400;12.486;2022-10-16T14:56:48;19.30;1.00
13245;DHT22;6689;53.400;12.486;2022-10-16T15:02:18;19.20;8.60
13245;DHT22;6689;53.400;12.486;2022-10-16T15:04:53;19.20;5.90
13245;DHT22;6689;53.400;12.486;2022-10-16T15:07:34;19.10;12.00
13245;DHT22;6689;53.400;12.486;2022-10-16T15:10:01;19.10;15.50
13245;DHT22;6689;53.400;12.486;2022-10-16T15:12:42;19.00;18.50
13245;DHT22;6689;53.400;12.486;2022-10-16T15:15:25;19.00;23.70
13245;DHT22;6689;53.400;12.486;2022-10-16T15:21:02;19.00;9.50
13245;DHT22;6689;53.400;12.486;2022-10-16T15:23:32;19.00;17.30
13245;DHT22;6689;53.400;12.486;2022-10-16T15:26:12;19.00;22.60
13245;DHT22;6689;53.400;12.486;2022-10-16T15:28:53;19.00;23.40
13245;DHT22;6689;53.400;12.486;2022-10-16T15:31:22;18.90;19.80
13245;DHT22;6689;53.400;12.486;2022-10-16T15:34:04;18.90;27.00
13245;DHT22;6689;53.400;12.486;2022-10-16T15:36:47;18.90;36.30
13245;DHT22;6689;53.400;12.486;2022-10-16T15:39:28;18.90;27.40
13245;DHT22;6689;53.400;12.486;2022-10-16T15:42:08;18.80;17.50
13245;DHT22;6689;53.400;12.486;2022-10-16T15:44:49;18.70;37.60
13245;DHT22;6689;53.400;12.486;2022-10-16T15:47:18;18.70;38.90
13245;DHT22;6689;53.400;12.486;2022-10-16T15:49:53;18.70;44.40
13245;DHT22;6689;53.400;12.486;2022-10-16T15:52:25;18.70;49.40
13245;DHT22;6689;53.400;12.486;2022-10-16T15:55:00;18.50;45.10
13245;DHT22;6689;53.400;12.486;2022-10-16T15:57:28;18.50;48.70
13245;DHT22;6689;53.400;12.486;2022-10-16T16:00:09;18.50;43.60
13245;DHT22;6689;53.400;12.486;2022-10-16T16:02:38;18.40;62.00
13245;DHT22;6689;53.400;12.486;2022-10-16T16:05:19;18.40;66.10
13245;DHT22;6689;53.400;12.486;2022-10-16T16:08:02;18.30;66.80
13245;DHT22;6689;53.400;12.486;2022-10-16T16:10:42;18.30;83.70
13245;DHT22;6689;53.400;12.486;2022-10-16T16:13:12;18.20;70.00
13245;DHT22;6689;53.400;12.486;2022-10-16T16:15:44;18.10;67.30
13245;DHT22;6689;53.400;12.486;2022-10-16T16:18:13;18.10;95.50
13245;DHT22;6689;53.400;12.486;2022-10-16T16:20:39;18.10;99.90
13245;DHT22;6689;53.400;12.486;2022-10-16T16:23:13;18.10;99.90
13245;DHT22;6689;53.400;12.486;2022-10-16T16:26:04;18.00;99.90
13245;DHT22;6689;53.400;12.486;2022-10-16T16:28:33;17.90;99.90
13245;DHT22;6689;53.400;12.486;2022-10-16T16:31:02;17.80;99.90
13245;DHT22;6689;53.400;12.486;2022-10-16T16:33:38;17.80;99.90
13245;DHT22;6689;53.400;12.486;2022-10-16T16:36:09;17.80;99.90
13245;DHT22;6689;53.400;12.486;2022-10-16T16:44:17;17.50;99.90
13245;DHT22;6689;53.400;12.486;2022-10-16T16:46:44;17.50;99.90
13245;DHT22;6689;53.400;12.486;2022-10-16T16:49:25;17.40;99.90
13245;DHT22;6689;53.400;12.486;2022-10-16T16:51:53;17.30;99.90
13245;DHT22;6689;53.400;12.486;2022-10-16T16:54:34;17.20;99.90
13245;DHT22;6689;53.400;12.486;2022-10-16T16:57:01;17.10;99.90
13245;DHT22;6689;53.400;12.486;2022-10-16T16:59:38;17.10;99.90
13245;DHT22;6689;53.400;12.486;2022-10-16T17:02:17;17.00;99.90
13245;DHT22;6689;53.400;12.486;2022-10-16T17:04:57;17.00;99.90
13245;DHT22;6689;53.400;12.486;2022-10-16T17:07:27;16.90;99.90
13245;DHT22;6689;53.400;12.486;2022-10-16T17:10:11;16.80;99.90
13245;DHT22;6689;53.400;12.486;2022-10-16T17:12:39;16.70;99.90
13245;DHT22;6689;53.400;12.486;2022-10-16T17:15:16;16.70;99.90
13245;DHT22;6689;53.400;12.486;2022-10-16T17:17:48;16.60;99.90
13245;DHT22;6689;53.400;12.486;2022-10-16T17:20:15;16.50;99.90
13245;DHT22;6689;53.400;12.486;2022-10-16T17:22:43;16.50;99.90
13245;DHT22;6689;53.400;12.486;2022-10-16T17:25:25;16.40;99.90
13245;DHT22;6689;53.400;12.486;2022-10-16T17:27:53;16.30;99.90
13245;DHT22;6689;53.400;12.486;2022-10-16T17:33:28;16.20;99.90
13245;DHT22;6689;53.400;12.486;2022-10-16T17:36:09;16.20;99.90
13245;DHT22;6689;53.400;12.486;2022-10-16T17:38:50;16.10;99.90
13245;DHT22;6689;53.400;12.486;2022-10-16T17:41:20;16.10;99.90
13245;DHT22;6689;53.400;12.486;2022-10-16T17:43:49;16.00;99.90
13245;DHT22;6689;53.400;12.486;2022-10-16T17:46:30;16.00;99.90
13245;DHT22;6689;53.400;12.486;2022-10-16T17:49:00;15.90;99.90
13245;DHT22;6689;53.400;12.486;2022-10-16T17:51:30;15.80;99.90
13245;DHT22;6689;53.400;12.486;2022-10-16T17:54:01;15.80;99.90
13245;DHT22;6689;53.400;12.486;2022-10-16T17:56:43;15.70;99.90